createdAt,value
2019-01-18T00:00:27.269Z,21.13
2019-01-18T00:02:57.845Z,12.07
2019-01-18T00:05:27.658Z,20.07
2019-01-18T00:08:00.189Z,14.90
2019-01-18T00:10:29.117Z,5.83
2019-01-18T00:13:07.013Z,9.57
2019-01-18T00:15:39.033Z,9.20
2019-01-18T00:18:13.366Z,6.30
2019-01-18T00:20:41.843Z,5.70
2019-01-18T00:23:16.861Z,4.23
2019-01-18T00:25:47.965Z,4.57
2019-01-18T00:28:16.505Z,5.70
2019-01-18T00:30:47.268Z,5.13
2019-01-18T00:33:18.753Z,5.07
2019-01-18T00:35:47.599Z,5.17
2019-01-18T00:38:17.651Z,4.30
2019-01-18T00:40:47.078Z,4.50
2019-01-18T00:43:17.294Z,5.47
2019-01-18T00:45:47.283Z,5.00
2019-01-18T00:48:15.823Z,4.87
2019-01-18T00:50:44.402Z,5.03
2019-01-18T00:53:13.188Z,4.77
2019-01-18T00:55:43.299Z,5.83
2019-01-18T00:58:13.165Z,4.97
2019-01-18T01:00:42.824Z,5.07
2019-01-18T01:03:11.352Z,5.27
2019-01-18T01:05:40.370Z,4.67
2019-01-18T01:08:09.535Z,4.87
2019-01-18T01:10:38.615Z,5.20
2019-01-18T01:13:08.366Z,5.17
2019-01-18T01:15:37.158Z,5.07
2019-01-18T01:18:06.042Z,5.13
2019-01-18T01:20:34.640Z,5.83
2019-01-18T01:23:03.088Z,6.00
2019-01-18T01:25:31.924Z,7.47
2019-01-18T01:28:00.557Z,6.20
2019-01-18T01:30:29.599Z,7.00
2019-01-18T01:32:58.140Z,7.13
2019-01-18T01:35:26.678Z,7.70
2019-01-18T01:37:55.565Z,8.20
2019-01-18T01:40:26.044Z,8.53
2019-01-18T01:42:54.593Z,8.53
2019-01-18T01:45:23.172Z,8.90
2019-01-18T01:47:51.656Z,7.40
2019-01-18T01:50:22.566Z,7.40
2019-01-18T01:52:51.334Z,7.43
2019-01-18T01:55:20.274Z,8.37
2019-01-18T01:57:48.852Z,7.97
2019-01-18T02:00:19.650Z,7.43
2019-01-18T02:02:48.274Z,8.40
2019-01-18T02:05:17.242Z,7.00
2019-01-18T02:07:46.245Z,7.70
2019-01-18T02:10:16.996Z,8.23
2019-01-18T02:12:45.602Z,8.00
2019-01-18T02:15:23.098Z,7.53
2019-01-18T02:17:53.346Z,7.33
2019-01-18T02:20:23.328Z,7.90
2019-01-18T02:22:52.766Z,7.80
2019-01-18T02:25:21.794Z,7.67
2019-01-18T02:27:50.744Z,7.13
2019-01-18T02:30:25.036Z,7.80
2019-01-18T02:32:53.697Z,7.60
2019-01-18T02:35:22.442Z,6.93
2019-01-18T02:37:51.318Z,7.30
2019-01-18T02:40:20.230Z,6.90
2019-01-18T02:42:48.969Z,7.10
2019-01-18T02:45:22.468Z,7.43
2019-01-18T02:47:51.478Z,6.23
2019-01-18T02:50:20.332Z,7.07
2019-01-18T02:52:49.157Z,6.20
2019-01-18T02:55:17.697Z,6.00
2019-01-18T02:57:46.136Z,5.07
2019-01-18T03:00:17.292Z,4.37
2019-01-18T03:02:46.261Z,6.53
2019-01-18T03:05:17.192Z,5.60
2019-01-18T03:07:46.313Z,5.90
2019-01-18T03:10:17.814Z,6.63
2019-01-18T03:12:46.604Z,5.63
2019-01-18T03:15:15.112Z,5.03
2019-01-18T03:17:43.922Z,4.67
2019-01-18T03:20:14.894Z,5.37
2019-01-18T03:22:43.458Z,6.43
2019-01-18T03:25:14.540Z,4.67
2019-01-18T03:27:42.987Z,4.73
2019-01-18T03:30:20.057Z,5.03
2019-01-18T03:32:47.926Z,6.30
2019-01-18T03:35:18.691Z,5.50
2019-01-18T03:37:47.198Z,5.67
2019-01-18T03:40:17.668Z,5.77
2019-01-18T03:42:46.632Z,5.30
2019-01-18T03:45:16.928Z,4.50
2019-01-18T03:47:45.691Z,4.57
2019-01-18T03:50:22.620Z,4.77
2019-01-18T03:52:51.167Z,5.40
2019-01-18T03:55:20.037Z,4.30
2019-01-18T03:57:48.906Z,5.43
2019-01-18T04:00:26.294Z,5.33
2019-01-18T04:02:52.599Z,4.67
2019-01-18T04:05:21.633Z,5.33
2019-01-18T04:07:50.557Z,5.50
2019-01-18T04:10:20.886Z,5.63
2019-01-18T04:12:49.470Z,5.70
2019-01-18T04:15:21.001Z,6.27
2019-01-18T04:17:49.769Z,5.00
2019-01-18T04:20:20.261Z,5.17
2019-01-18T04:22:48.820Z,5.83
2019-01-18T04:25:19.244Z,5.40
2019-01-18T04:27:47.986Z,6.00
2019-01-18T04:30:21.206Z,5.23
2019-01-18T04:32:50.494Z,5.73
2019-01-18T04:35:19.376Z,5.97
2019-01-18T04:37:48.257Z,6.10
2019-01-18T04:40:19.041Z,6.27
2019-01-18T04:42:47.622Z,6.10
2019-01-18T04:45:16.109Z,4.67
2019-01-18T04:47:44.943Z,5.23
2019-01-18T04:50:21.755Z,5.50
2019-01-18T04:52:50.608Z,6.13
2019-01-18T04:55:19.759Z,5.07
2019-01-18T04:57:48.605Z,5.60
2019-01-18T05:00:20.125Z,4.50
2019-01-18T05:02:48.659Z,5.40
2019-01-18T05:05:17.137Z,5.23
2019-01-18T05:07:45.767Z,5.70
2019-01-18T05:10:16.639Z,6.07
2019-01-18T05:12:45.457Z,4.90
2019-01-18T05:15:19.764Z,5.30
2019-01-18T05:17:48.298Z,4.60
2019-01-18T05:20:17.297Z,4.63
2019-01-18T05:22:46.089Z,6.27
2019-01-18T05:25:14.638Z,5.50
2019-01-18T05:27:43.189Z,5.47
2019-01-18T05:30:20.333Z,5.17
2019-01-18T05:32:49.336Z,5.80
2019-01-18T05:35:17.997Z,6.30
2019-01-18T05:37:46.446Z,5.73
2019-01-18T05:40:20.832Z,6.50
2019-01-18T05:42:50.490Z,6.20
2019-01-18T05:45:21.146Z,6.90
2019-01-18T05:47:50.251Z,6.20
2019-01-18T05:50:26.555Z,5.57
2019-01-18T05:52:55.405Z,6.67
2019-01-18T05:55:24.231Z,7.33
2019-01-18T05:57:53.077Z,7.17
2019-01-18T06:00:28.933Z,6.23
2019-01-18T06:02:57.409Z,7.63
2019-01-18T06:05:26.577Z,7.27
2019-01-18T06:07:55.378Z,6.87
2019-01-18T06:10:23.911Z,5.27
2019-01-18T06:12:52.367Z,7.93
2019-01-18T06:15:20.860Z,7.50
2019-01-18T06:17:49.306Z,7.50
2019-01-18T06:20:18.489Z,8.23
2019-01-18T06:22:47.309Z,10.73
2019-01-18T06:25:15.850Z,17.73
2019-01-18T06:27:44.740Z,11.07
2019-01-18T06:30:16.086Z,11.87
2019-01-18T06:32:44.589Z,13.17
2019-01-18T06:35:14.239Z,13.07
2019-01-18T06:37:43.290Z,10.13
2019-01-18T06:40:14.614Z,12.13
2019-01-18T06:42:43.413Z,12.17
2019-01-18T06:45:14.462Z,14.67
2019-01-18T06:47:43.257Z,15.53
2019-01-18T06:50:14.145Z,15.70
2019-01-18T06:52:43.019Z,16.27
2019-01-18T06:55:12.473Z,15.07
2019-01-18T06:57:40.988Z,20.80
2019-01-18T07:00:15.501Z,20.20
2019-01-18T07:02:44.392Z,15.97
2019-01-18T07:05:12.924Z,21.47
2019-01-18T07:07:41.475Z,31.20
2019-01-18T07:10:13.233Z,18.50
2019-01-18T07:12:42.038Z,18.03
2019-01-18T07:15:13.362Z,15.90
2019-01-18T07:17:42.198Z,19.43
2019-01-18T07:20:13.450Z,23.17
2019-01-18T07:22:42.319Z,19.17
2019-01-18T07:25:13.992Z,14.70
2019-01-18T07:27:43.335Z,13.07
2019-01-18T07:30:26.656Z,15.03
2019-01-18T07:32:55.363Z,13.20
2019-01-18T07:35:24.114Z,11.80
2019-01-18T07:37:52.943Z,12.47
2019-01-18T07:40:21.884Z,13.73
2019-01-18T07:42:50.373Z,15.13
2019-01-18T07:45:24.227Z,14.20
2019-01-18T07:47:53.262Z,12.13
2019-01-18T07:50:21.856Z,13.23
2019-01-18T07:52:50.838Z,13.13
2019-01-18T07:55:19.800Z,16.40
2019-01-18T07:57:48.354Z,16.17
2019-01-18T08:00:22.084Z,15.63
2019-01-18T08:02:50.608Z,12.43
2019-01-18T08:05:19.720Z,15.27
2019-01-18T08:07:49.190Z,14.80
2019-01-18T08:10:19.704Z,16.40
2019-01-18T08:12:48.320Z,13.20
2019-01-18T08:15:19.391Z,16.57
2019-01-18T08:17:48.260Z,15.73
2019-01-18T08:20:28.688Z,15.80
2019-01-18T08:22:58.184Z,18.03
2019-01-18T08:25:27.061Z,18.40
2019-01-18T08:27:55.956Z,18.27
2019-01-18T08:30:31.508Z,18.60
2019-01-18T08:33:00.259Z,18.40
2019-01-18T08:35:30.485Z,21.00
2019-01-18T08:37:59.092Z,21.27
2019-01-18T08:40:30.276Z,184.53
2019-01-18T08:42:59.130Z,32.53
2019-01-18T08:45:35.925Z,120.83
2019-01-18T08:48:05.880Z,206.93
2019-01-18T08:50:34.420Z,180.50
2019-01-18T08:53:07.385Z,98.27
2019-01-18T08:55:36.167Z,223.13
2019-01-18T08:58:04.896Z,36.17
2019-01-18T09:00:33.832Z,33.53
2019-01-18T09:03:02.643Z,30.20
2019-01-18T09:05:32.749Z,24.07
2019-01-18T09:08:01.223Z,24.17
2019-01-18T09:10:34.651Z,18.63
2019-01-18T09:13:03.493Z,19.60
2019-01-18T09:15:32.308Z,18.07
2019-01-18T09:18:01.072Z,19.73
2019-01-18T09:20:31.432Z,20.63
2019-01-18T09:23:00.272Z,20.67
2019-01-18T09:25:28.780Z,21.70
2019-01-18T09:27:57.654Z,21.83
2019-01-18T09:30:30.510Z,19.23
2019-01-18T09:32:58.961Z,19.80
2019-01-18T09:35:27.468Z,19.80
2019-01-18T09:37:59.005Z,20.33
2019-01-18T09:40:29.492Z,19.30
2019-01-18T09:42:58.488Z,26.50
2019-01-18T09:45:27.349Z,28.73
2019-01-18T09:47:56.169Z,25.63
2019-01-18T09:50:32.649Z,23.67
2019-01-18T09:53:02.806Z,22.57
2019-01-18T09:55:31.413Z,20.70
2019-01-18T09:57:59.905Z,18.57
2019-01-18T10:00:33.977Z,19.27
2019-01-18T10:03:02.797Z,25.77
2019-01-18T10:05:32.198Z,32.07
2019-01-18T10:08:01.103Z,34.97
2019-01-18T10:10:29.657Z,26.87
2019-01-18T10:12:58.609Z,24.13
2019-01-18T10:15:38.843Z,18.37
2019-01-18T10:18:10.488Z,14.00
2019-01-18T10:20:39.244Z,12.43
2019-01-18T10:23:08.078Z,11.00
2019-01-18T10:25:36.957Z,10.77
2019-01-18T10:28:05.840Z,10.67
2019-01-18T10:30:34.699Z,9.83
2019-01-18T10:33:04.786Z,9.38
2019-01-18T10:35:34.522Z,10.08
2019-01-18T10:38:03.626Z,8.98
2019-01-18T10:40:33.336Z,10.08
2019-01-18T10:43:02.235Z,9.68
2019-01-18T10:45:31.133Z,9.55
2019-01-18T10:48:00.104Z,9.30
2019-01-18T10:50:32.401Z,9.50
2019-01-18T10:53:01.361Z,9.95
2019-01-18T10:55:30.173Z,10.43
2019-01-18T10:57:59.037Z,10.40
2019-01-18T11:00:30.175Z,12.98
2019-01-18T11:02:59.004Z,13.25
2019-01-18T11:05:27.863Z,14.58
2019-01-18T11:07:56.651Z,17.62
2019-01-18T11:10:25.239Z,17.00
2019-01-18T11:12:55.173Z,18.13
2019-01-18T11:15:26.113Z,16.30
2019-01-18T11:17:54.874Z,19.87
2019-01-18T11:20:29.295Z,19.73
2019-01-18T11:22:59.585Z,20.63
2019-01-18T11:25:31.857Z,22.20
2019-01-18T11:27:59.233Z,21.97
2019-01-18T11:30:28.134Z,20.90
2019-01-18T11:32:56.931Z,22.90
2019-01-18T11:35:25.457Z,23.60
2019-01-18T11:37:54.401Z,21.83
2019-01-18T11:40:24.209Z,21.53
2019-01-18T11:42:52.657Z,22.90
2019-01-18T11:45:21.498Z,21.30
2019-01-18T11:47:50.216Z,24.43
2019-01-18T11:50:21.669Z,22.70
2019-01-18T11:52:50.143Z,22.80
2019-01-18T11:55:18.661Z,19.77
2019-01-18T11:57:48.044Z,18.53
2019-01-18T12:00:21.877Z,22.30
2019-01-18T12:02:50.780Z,21.53
2019-01-18T12:05:19.331Z,22.37
2019-01-18T12:07:48.332Z,25.13
2019-01-18T12:10:22.553Z,25.20
2019-01-18T12:12:51.415Z,24.50
2019-01-18T12:15:19.948Z,25.80
2019-01-18T12:17:48.704Z,20.83
2019-01-18T12:20:29.213Z,22.10
2019-01-18T12:22:58.043Z,23.70
2019-01-18T12:25:26.576Z,23.00
2019-01-18T12:27:55.508Z,22.30
2019-01-18T12:30:29.540Z,23.53
2019-01-18T12:32:58.054Z,20.07
2019-01-18T12:35:27.095Z,19.70
2019-01-18T12:37:55.715Z,17.80
2019-01-18T12:40:24.975Z,20.70
2019-01-18T12:42:53.575Z,22.30
2019-01-18T12:45:23.217Z,25.50
2019-01-18T12:47:52.096Z,22.40
2019-01-18T12:50:23.644Z,22.90
2019-01-18T12:52:53.122Z,23.13
2019-01-18T12:55:22.016Z,23.80
2019-01-18T12:57:51.721Z,23.10
2019-01-18T13:00:23.153Z,23.37
2019-01-18T13:02:51.934Z,20.27
2019-01-18T13:05:30.390Z,20.47
2019-01-18T13:07:59.250Z,19.77
2019-01-18T13:10:28.046Z,21.73
2019-01-18T13:12:56.598Z,22.70
2019-01-18T13:15:31.436Z,25.23
2019-01-18T13:17:59.898Z,24.60
2019-01-18T13:20:28.701Z,27.40
2019-01-18T13:22:57.526Z,23.97
2019-01-18T13:25:26.819Z,25.10
2019-01-18T13:27:59.737Z,28.03
2019-01-18T13:30:25.881Z,28.70
2019-01-18T13:32:54.816Z,30.40
2019-01-18T13:35:23.328Z,28.50
2019-01-18T13:37:52.182Z,25.30
2019-01-18T13:40:22.098Z,19.90
2019-01-18T13:42:51.078Z,20.43
2019-01-18T13:45:24.278Z,19.27
2019-01-18T13:47:50.109Z,19.50
2019-01-18T13:50:19.406Z,19.57
2019-01-18T13:52:48.745Z,18.03
2019-01-18T13:55:28.492Z,15.53
2019-01-18T13:57:57.208Z,17.10
2019-01-18T14:00:25.788Z,20.87
2019-01-18T14:02:54.595Z,15.60
2019-01-18T14:05:23.479Z,18.97
2019-01-18T14:07:53.521Z,14.17
2019-01-18T14:10:31.410Z,14.97
2019-01-18T14:13:00.523Z,14.40
2019-01-18T14:15:29.696Z,16.03
2019-01-18T14:17:58.168Z,15.43
2019-01-18T14:20:31.058Z,15.80
2019-01-18T14:23:07.677Z,14.87
2019-01-18T14:25:36.498Z,15.80
2019-01-18T14:28:05.105Z,17.00
2019-01-18T14:30:35.741Z,17.83
2019-01-18T14:33:03.876Z,17.17
2019-01-18T14:35:32.322Z,16.83
2019-01-18T14:38:00.769Z,15.63
2019-01-18T14:40:29.832Z,15.57
2019-01-18T14:42:58.653Z,15.70
2019-01-18T14:45:30.748Z,18.23
2019-01-18T14:47:59.406Z,16.13
2019-01-18T14:50:28.127Z,16.13
2019-01-18T14:52:57.285Z,16.33
2019-01-18T14:55:25.841Z,17.53
2019-01-18T14:57:54.931Z,15.43
2019-01-18T15:00:31.233Z,16.40
2019-01-18T15:03:02.371Z,15.00
2019-01-18T15:05:30.269Z,14.90
2019-01-18T15:07:58.806Z,15.97
2019-01-18T15:10:27.551Z,15.93
2019-01-18T15:13:04.918Z,15.23
2019-01-18T15:15:37.433Z,18.27
2019-01-18T15:18:06.199Z,16.07
2019-01-18T15:20:35.068Z,18.83
2019-01-18T15:23:03.598Z,17.30
2019-01-18T15:25:32.257Z,14.27
2019-01-18T15:28:02.543Z,15.47
2019-01-18T15:30:34.007Z,16.97
2019-01-18T15:33:08.828Z,17.20
2019-01-18T15:35:35.685Z,22.20
2019-01-18T15:38:05.470Z,18.80
2019-01-18T15:40:40.170Z,16.10
2019-01-18T15:43:08.677Z,19.80
2019-01-18T15:45:37.533Z,20.53
2019-01-18T15:48:06.573Z,20.73
2019-01-18T15:50:37.861Z,17.83
2019-01-18T15:53:07.339Z,19.20
2019-01-18T15:55:36.661Z,19.50
2019-01-18T15:58:06.229Z,19.70
2019-01-18T16:00:40.432Z,19.53
2019-01-18T16:03:15.646Z,21.33
2019-01-18T16:05:39.801Z,19.43
2019-01-18T16:08:08.480Z,23.03
2019-01-18T16:10:37.480Z,17.87
2019-01-18T16:13:08.130Z,19.13
2019-01-18T16:15:45.581Z,18.43
2019-01-18T16:18:18.141Z,16.93
2019-01-18T16:20:46.837Z,17.77
2019-01-18T16:23:15.789Z,16.10
2019-01-18T16:25:44.575Z,16.80
2019-01-18T16:28:13.137Z,18.70
2019-01-18T16:30:41.596Z,17.60
2019-01-18T16:33:10.578Z,17.27
2019-01-18T16:35:39.336Z,17.20
2019-01-18T16:38:10.785Z,17.00
2019-01-18T16:40:39.307Z,16.60
2019-01-18T16:43:26.042Z,17.13
2019-01-18T16:45:54.886Z,20.17
2019-01-18T16:48:23.329Z,20.83
2019-01-18T16:50:51.860Z,22.10
2019-01-18T16:53:20.719Z,19.97
2019-01-18T16:55:49.533Z,19.40
2019-01-18T16:58:18.426Z,18.70
2019-01-18T17:00:58.849Z,17.77
2019-01-18T17:03:30.536Z,18.23
2019-01-18T17:05:57.855Z,19.43
2019-01-18T17:08:26.305Z,20.70
2019-01-18T17:10:55.229Z,21.57
2019-01-18T17:13:24.230Z,22.67
2019-01-18T17:15:52.848Z,22.23
2019-01-18T17:18:23.240Z,22.17
2019-01-18T17:20:52.074Z,21.70
2019-01-18T17:23:20.916Z,22.43
2019-01-18T17:25:49.749Z,22.37
2019-01-18T17:28:18.530Z,23.17
2019-01-18T17:30:47.243Z,26.73
2019-01-18T17:33:16.269Z,25.53
2019-01-18T17:35:47.994Z,26.40
2019-01-18T17:38:26.160Z,22.00
2019-01-18T17:40:57.990Z,24.70
2019-01-18T17:43:45.189Z,25.67
2019-01-18T17:46:44.232Z,26.93
2019-01-18T17:49:19.265Z,29.23
2019-01-18T17:52:05.552Z,24.53
2019-01-18T17:54:37.094Z,24.57
2019-01-18T17:57:08.620Z,25.70
2019-01-18T17:59:59.646Z,28.10
2019-01-18T18:02:53.819Z,27.93
2019-01-18T18:05:54.685Z,37.80
2019-01-18T18:08:38.441Z,32.43
2019-01-18T18:11:32.905Z,28.73
2019-01-18T18:14:06.387Z,24.60
2019-01-18T18:16:38.299Z,18.57
2019-01-18T18:19:28.060Z,29.37
2019-01-18T18:22:33.390Z,30.33
2019-01-18T18:25:31.125Z,26.87
2019-01-18T18:28:14.818Z,31.70
2019-01-18T18:30:47.042Z,27.87
2019-01-18T18:33:55.535Z,33.50
2019-01-18T18:36:59.572Z,45.30
2019-01-18T18:39:51.017Z,30.53
2019-01-18T18:42:37.838Z,31.77
2019-01-18T18:45:24.622Z,34.60
2019-01-18T18:47:59.426Z,38.07
2019-01-18T18:50:53.951Z,35.00
2019-01-18T18:53:32.646Z,35.13
2019-01-18T18:56:07.492Z,30.40
2019-01-18T18:58:51.124Z,31.67
2019-01-18T19:01:22.762Z,39.73
2019-01-18T19:03:57.550Z,36.53
2019-01-18T19:06:43.683Z,34.23
2019-01-18T19:09:17.982Z,33.40
2019-01-18T19:11:55.477Z,26.33
2019-01-18T19:14:42.616Z,32.57
2019-01-18T19:17:16.820Z,35.03
2019-01-18T19:20:12.531Z,31.60
2019-01-18T19:22:49.847Z,35.23
2019-01-18T19:25:27.050Z,32.47
2019-01-18T19:28:04.164Z,30.47
2019-01-18T19:31:08.736Z,37.97
2019-01-18T19:33:50.327Z,35.33
2019-01-18T19:36:37.123Z,39.37
2019-01-18T19:39:14.236Z,45.80
2019-01-18T19:41:51.279Z,44.77
2019-01-18T19:44:38.410Z,40.63
2019-01-18T19:47:22.207Z,42.57
2019-01-18T19:50:02.008Z,42.03
2019-01-18T19:52:53.208Z,37.97
2019-01-18T19:55:36.818Z,42.23
2019-01-18T19:58:17.685Z,43.20
2019-01-18T20:00:58.497Z,40.83
2019-01-18T20:03:36.269Z,39.47
2019-01-18T20:06:35.250Z,44.87
2019-01-18T20:09:12.294Z,39.57
2019-01-18T20:11:59.334Z,44.27
2019-01-18T20:14:33.473Z,41.33
2019-01-18T20:17:16.653Z,42.53
2019-01-18T20:20:06.555Z,39.37
2019-01-18T20:22:41.011Z,44.23
2019-01-18T20:25:24.490Z,49.00
2019-01-18T20:28:07.355Z,44.03
2019-01-18T20:30:50.518Z,42.20
2019-01-18T20:33:25.407Z,43.27
2019-01-18T20:36:00.133Z,45.07
2019-01-18T20:38:46.635Z,39.80
2019-01-18T20:41:37.562Z,43.50
2019-01-18T20:44:18.137Z,44.03
2019-01-18T20:46:55.164Z,49.87
2019-01-18T20:49:35.828Z,53.90
2019-01-18T20:52:28.106Z,43.50
2019-01-18T20:55:28.381Z,35.93
2019-01-18T20:58:05.473Z,34.03
2019-01-18T21:00:58.408Z,39.53
2019-01-18T21:03:35.686Z,40.07
2019-01-18T21:06:08.274Z,38.13
2019-01-18T21:08:39.862Z,37.97
2019-01-18T21:11:17.766Z,32.70
2019-01-18T21:13:58.103Z,31.63
2019-01-18T21:16:52.414Z,31.27
2019-01-18T21:19:23.929Z,33.67
2019-01-18T21:21:55.459Z,31.20
2019-01-18T21:24:50.084Z,34.03
2019-01-18T21:27:23.542Z,36.13
2019-01-18T21:30:10.405Z,36.30
2019-01-18T21:32:58.445Z,36.93
2019-01-18T21:35:35.897Z,36.77
2019-01-18T21:38:07.963Z,35.63
2019-01-18T21:40:39.533Z,36.63
2019-01-18T21:43:27.558Z,37.23
2019-01-18T21:46:19.929Z,34.30
2019-01-18T21:49:07.167Z,38.57
2019-01-18T21:51:50.981Z,35.43
2019-01-18T21:54:22.535Z,35.60
2019-01-18T21:57:06.494Z,34.70
2019-01-18T21:59:50.262Z,35.67
2019-01-18T22:02:27.382Z,37.53
2019-01-18T22:05:30.891Z,36.27
2019-01-18T22:08:06.989Z,41.63
2019-01-18T22:10:41.719Z,34.53
2019-01-18T22:13:28.403Z,33.87
2019-01-18T22:16:31.889Z,36.50
2019-01-18T22:19:09.324Z,36.20
2019-01-18T22:21:47.144Z,34.43
2019-01-18T22:24:24.584Z,35.37
2019-01-18T22:27:03.577Z,33.33
2019-01-18T22:29:37.799Z,31.50
2019-01-18T22:32:18.993Z,31.87
2019-01-18T22:35:07.202Z,31.00
2019-01-18T22:37:57.373Z,31.70
2019-01-18T22:40:29.479Z,33.27
2019-01-18T22:43:07.135Z,32.53
2019-01-18T22:45:39.080Z,33.93
2019-01-18T22:48:32.165Z,33.47
2019-01-18T22:51:21.535Z,33.60
2019-01-18T22:53:53.112Z,33.03
2019-01-18T22:56:48.865Z,35.60
2019-01-18T22:59:47.472Z,33.73
2019-01-18T23:02:19.481Z,30.60
2019-01-18T23:04:57.353Z,34.00
2019-01-18T23:07:28.921Z,34.93
2019-01-18T23:10:03.901Z,33.57
2019-01-18T23:12:50.898Z,31.83
2019-01-18T23:15:48.229Z,35.77
2019-01-18T23:18:36.215Z,32.43
2019-01-18T23:21:19.889Z,31.00
2019-01-18T23:24:02.910Z,30.77
2019-01-18T23:26:47.753Z,34.23
2019-01-18T23:29:19.639Z,30.93
2019-01-18T23:32:23.010Z,30.33
2019-01-18T23:35:03.127Z,28.40
2019-01-18T23:37:38.074Z,31.70
2019-01-18T23:40:27.967Z,31.53
2019-01-18T23:43:14.701Z,30.23
2019-01-18T23:45:54.143Z,31.17
2019-01-18T23:48:42.695Z,29.97
2019-01-18T23:51:34.145Z,31.73
2019-01-18T23:54:23.875Z,31.87
2019-01-18T23:57:07.508Z,30.43
2019-01-18T23:59:39.293Z,31.57
